This is the latest recevied weather packets stored in our database for station/object WA1TYB-13. If no packets are shown the sender has not sent any weather packets the latest 10 day(s).
| Time | Temp. | Humidity | Pressure | Rain* | Wind** | Luminosity | Snow |
|---|---|---|---|---|---|---|---|
| 1777967179 | 2.78° C | 58% | 1018.4 hPa | 0 mm | - | 0 W/m² | - |
| 1777966876 | 2.22° C | 59% | 1018.1 hPa | 0 mm | - | 0 W/m² | - |
| 1777966574 | 1.67° C | 62% | 1018.2 hPa | 0 mm | - | 0 W/m² | - |
| 1777966272 | 2.22° C | 59% | 1018.4 hPa | 0 mm | - | 0 W/m² | - |
| 1777965967 | 2.78° C | 57% | 1018.2 hPa | 0 mm | - | 0 W/m² | - |
| 1777965664 | 3.33° C | 55% | 1018.4 hPa | 0 mm | - | 0 W/m² | - |
| 1777965359 | 3.33° C | 55% | 1018.5 hPa | 0 mm | - | 0 W/m² | - |
| 1777965058 | 3.89° C | 53% | 1018.2 hPa | 0 mm | - | 0 W/m² | - |
| 1777964755 | 3.89° C | 54% | 1018.5 hPa | 0 mm | - | 0 W/m² | - |
| 1777964450 | 3.89° C | 53% | 1018.5 hPa | 0 mm | - | 0 W/m² | - |
| 1777964146 | 3.89° C | 53% | 1018.4 hPa | 0 mm | - | 0 W/m² | - |
| 1777963844 | 4.44° C | 52% | 1018.4 hPa | 0 mm | - | 0 W/m² | - |
| 1777963540 | 3.89° C | 52% | 1018.4 hPa | 0 mm | - | 0 W/m² | - |
| 1777963239 | 4.44° C | 50% | 1018.2 hPa | 0 mm | - | 0 W/m² | - |
| 1777962936 | 5° C | 49% | 1018.4 hPa | 0 mm | - | 0 W/m² | - |
| 1777962631 | 5° C | 49% | 1018.2 hPa | 0 mm | - | 0 W/m² | - |
| 1777962328 | 5° C | 49% | 1018.4 hPa | 0 mm | - | 0 W/m² | - |
| 1777962026 | 5° C | 50% | 1018.2 hPa | 0 mm | - | 0 W/m² | - |
| 1777961723 | 4.44° C | 51% | 1018.5 hPa | 0 mm | - | 0 W/m² | - |
| 1777961421 | 4.44° C | 52% | 1018.1 hPa | 0 mm | - | 0 W/m² | - |
| 1777961118 | 5° C | 51% | 1018.5 hPa | 0 mm | - | 0 W/m² | - |
| 1777960815 | 5° C | 52% | 1018.5 hPa | 0 mm | - | 0 W/m² | - |
| 1777960510 | 5° C | 53% | 1018.2 hPa | 0 mm | - | 0 W/m² | - |
| 1777960207 | 5.56° C | 52% | 1018.4 hPa | 0 mm | - | 0 W/m² | - |
| 1777959904 | 5.56° C | 49% | 1018.2 hPa | 0 mm | - | 0 W/m² | - |
* Rain latest hour (hover to see other rain measurements)
** Current wind speed in m/s (hover to see current wind gust speed)